createdAt,value
2018-07-08T00:01:29.299Z,20.30
2018-07-08T00:03:57.615Z,20.30
2018-07-08T00:06:25.848Z,20.30
2018-07-08T00:08:54.200Z,20.30
2018-07-08T00:11:22.486Z,20.30
2018-07-08T00:13:50.696Z,20.20
2018-07-08T00:16:18.997Z,20.20
2018-07-08T00:18:47.252Z,20.10
2018-07-08T00:21:15.515Z,20.10
2018-07-08T00:23:43.721Z,20.10
2018-07-08T00:26:11.944Z,20.00
2018-07-08T00:28:40.220Z,20.00
2018-07-08T00:31:08.505Z,20.00
2018-07-08T00:33:36.772Z,19.90
2018-07-08T00:36:05.130Z,19.90
2018-07-08T00:38:33.377Z,19.90
2018-07-08T00:41:01.633Z,19.80
2018-07-08T00:43:30.019Z,19.80
2018-07-08T00:45:58.277Z,19.80
2018-07-08T00:48:26.500Z,19.80
2018-07-08T00:50:54.730Z,19.80
2018-07-08T00:53:23.107Z,19.80
2018-07-08T00:55:51.418Z,19.70
2018-07-08T00:58:19.652Z,19.70
2018-07-08T01:00:47.937Z,19.70
2018-07-08T01:03:16.193Z,19.60
2018-07-08T01:05:44.413Z,19.60
2018-07-08T01:08:12.788Z,19.60
2018-07-08T01:10:41.089Z,19.50
2018-07-08T01:13:09.339Z,19.50
2018-07-08T01:18:05.796Z,19.50
2018-07-08T01:20:34.081Z,19.40
2018-07-08T01:23:02.306Z,19.40
2018-07-08T01:25:41.903Z,19.40
2018-07-08T01:28:10.104Z,19.30
2018-07-08T01:30:38.344Z,19.30
2018-07-08T01:33:06.681Z,19.20
2018-07-08T01:35:34.929Z,19.20
2018-07-08T01:38:03.197Z,19.20
2018-07-08T01:40:31.453Z,19.10
2018-07-08T01:42:59.683Z,19.10
2018-07-08T01:45:27.940Z,19.10
2018-07-08T01:47:56.237Z,19.10
2018-07-08T01:50:24.460Z,19.00
2018-07-08T01:52:52.766Z,19.00
2018-07-08T01:55:21.165Z,18.90
2018-07-08T01:57:49.432Z,18.90
2018-07-08T02:00:17.817Z,18.90
2018-07-08T02:02:45.994Z,18.90
2018-07-08T02:05:14.182Z,18.90
2018-07-08T02:10:10.328Z,18.90
2018-07-08T02:12:39.699Z,18.90
2018-07-08T02:15:07.868Z,18.80
2018-07-08T02:17:36.057Z,18.80
2018-07-08T02:20:04.437Z,18.80
2018-07-08T02:22:32.715Z,18.70
2018-07-08T02:25:00.916Z,18.70
2018-07-08T02:27:29.167Z,18.70
2018-07-08T02:29:57.489Z,18.70
2018-07-08T02:32:25.785Z,18.60
2018-07-08T02:34:54.074Z,18.60
2018-07-08T02:37:22.382Z,18.50
2018-07-08T02:39:50.594Z,18.50
2018-07-08T02:42:18.956Z,18.50
2018-07-08T02:44:47.138Z,18.40
2018-07-08T02:47:15.370Z,18.40
2018-07-08T02:49:43.596Z,18.40
2018-07-08T02:52:11.771Z,18.30
2018-07-08T02:54:39.993Z,18.30
2018-07-08T02:57:08.272Z,18.30
2018-07-08T02:59:36.498Z,18.20
2018-07-08T03:02:04.668Z,18.20
2018-07-08T03:04:33.041Z,18.20
2018-07-08T03:07:01.201Z,18.20
2018-07-08T03:09:29.410Z,18.10
2018-07-08T03:11:57.597Z,18.10
2018-07-08T03:14:25.794Z,18.00
2018-07-08T03:16:53.966Z,18.00
2018-07-08T03:19:22.166Z,18.00
2018-07-08T03:21:50.364Z,18.00
2018-07-08T03:24:18.562Z,18.00
2018-07-08T03:26:46.757Z,18.00
2018-07-08T03:29:15.070Z,18.00
2018-07-08T03:31:43.263Z,18.00
2018-07-08T03:34:11.618Z,18.00
2018-07-08T03:36:39.822Z,18.00
2018-07-08T03:39:08.877Z,18.00
2018-07-08T03:41:37.376Z,18.00
2018-07-08T03:44:06.148Z,17.90
2018-07-08T03:46:34.681Z,17.90
2018-07-08T03:49:02.897Z,17.90
2018-07-08T03:51:31.129Z,17.90
2018-07-08T03:53:59.541Z,17.90
2018-07-08T03:56:27.961Z,18.00
2018-07-08T03:58:56.128Z,18.00
2018-07-08T04:01:24.715Z,18.00
2018-07-08T04:03:52.918Z,18.00
2018-07-08T04:06:21.121Z,18.10
2018-07-08T04:08:49.306Z,18.10
2018-07-08T04:11:17.524Z,18.10
2018-07-08T04:13:45.747Z,18.10
2018-07-08T04:16:13.948Z,18.00
2018-07-08T04:21:10.085Z,18.10
2018-07-08T04:23:38.304Z,18.10
2018-07-08T04:26:06.493Z,18.10
2018-07-08T04:28:34.687Z,18.10
2018-07-08T04:31:02.873Z,18.10
2018-07-08T04:33:31.087Z,18.10
2018-07-08T04:35:59.309Z,18.10
2018-07-08T04:38:27.485Z,18.10
2018-07-08T04:40:55.652Z,18.10
2018-07-08T04:43:23.837Z,18.10
2018-07-08T04:45:52.084Z,18.10
2018-07-08T04:48:20.281Z,18.10
2018-07-08T04:50:48.453Z,18.10
2018-07-08T04:53:16.636Z,18.10
2018-07-08T04:55:44.822Z,18.10
2018-07-08T04:58:13.000Z,18.10
2018-07-08T05:03:09.166Z,18.10
2018-07-08T05:05:37.337Z,18.10
2018-07-08T05:08:05.515Z,18.10
2018-07-08T05:10:33.796Z,18.20
2018-07-08T05:13:02.043Z,18.20
2018-07-08T05:17:58.188Z,18.20
2018-07-08T05:20:26.386Z,18.30
2018-07-08T05:22:54.593Z,18.30
2018-07-08T05:25:22.797Z,18.40
2018-07-08T05:27:50.988Z,18.40
2018-07-08T05:30:19.194Z,18.50
2018-07-08T05:32:47.370Z,18.50
2018-07-08T05:35:15.585Z,18.50
2018-07-08T05:37:43.757Z,18.50
2018-07-08T05:40:11.929Z,18.40
2018-07-08T05:42:40.326Z,18.40
2018-07-08T05:45:09.426Z,18.30
2018-07-08T05:47:37.681Z,18.30
2018-07-08T05:50:06.238Z,18.30
2018-07-08T05:52:34.381Z,18.30
2018-07-08T05:55:02.633Z,18.30
2018-07-08T05:57:30.809Z,18.40
2018-07-08T05:59:59.021Z,18.50
2018-07-08T06:02:27.225Z,18.60
2018-07-08T06:04:55.409Z,18.70
2018-07-08T06:07:23.661Z,18.70
2018-07-08T06:09:51.869Z,18.80
2018-07-08T06:12:20.066Z,18.90
2018-07-08T06:14:48.243Z,19.00
2018-07-08T06:17:16.465Z,19.10
2018-07-08T06:19:44.636Z,19.10
2018-07-08T06:22:12.832Z,19.10
2018-07-08T06:24:41.026Z,19.20
2018-07-08T06:27:09.207Z,19.30
2018-07-08T06:29:37.398Z,19.30
2018-07-08T06:32:05.600Z,19.40
2018-07-08T06:34:34.256Z,19.40
2018-07-08T06:37:02.470Z,19.40
2018-07-08T06:39:31.001Z,19.50
2018-07-08T06:41:59.180Z,19.50
2018-07-08T06:44:27.377Z,19.60
2018-07-08T06:46:55.598Z,19.70
2018-07-08T06:49:24.013Z,19.70
2018-07-08T06:51:52.201Z,19.70
2018-07-08T06:54:20.380Z,19.80
2018-07-08T06:56:48.583Z,19.90
2018-07-08T06:59:16.805Z,19.90
2018-07-08T07:01:45.236Z,20.00
2018-07-08T07:04:13.441Z,20.00
2018-07-08T07:06:41.632Z,20.10
2018-07-08T07:09:10.734Z,20.10
2018-07-08T07:11:39.400Z,20.20
2018-07-08T07:14:07.612Z,20.30
2018-07-08T07:16:36.456Z,20.30
2018-07-08T07:19:05.044Z,20.30
2018-07-08T07:21:33.262Z,20.40
2018-07-08T07:24:01.455Z,20.40
2018-07-08T07:26:29.682Z,20.50
2018-07-08T07:28:57.882Z,20.50
2018-07-08T07:31:26.067Z,20.60
2018-07-08T07:33:54.470Z,20.60
2018-07-08T07:36:22.690Z,20.60
2018-07-08T07:38:50.934Z,20.70
2018-07-08T07:41:19.109Z,20.80
2018-07-08T07:43:47.316Z,20.80
2018-07-08T07:46:15.485Z,20.90
2018-07-08T07:48:43.717Z,20.90
2018-07-08T07:51:12.440Z,21.00
2018-07-08T07:53:40.614Z,21.00
2018-07-08T07:56:08.780Z,21.10
2018-07-08T07:58:36.968Z,21.10
2018-07-08T08:01:05.225Z,21.10
2018-07-08T08:03:33.447Z,21.10
2018-07-08T08:06:01.621Z,21.10
2018-07-08T08:08:29.868Z,21.20
2018-07-08T08:10:58.010Z,21.20
2018-07-08T08:13:26.457Z,21.30
2018-07-08T08:15:54.927Z,21.30
2018-07-08T08:18:23.137Z,21.40
2018-07-08T08:20:51.333Z,21.40
2018-07-08T08:23:19.506Z,21.50
2018-07-08T08:25:48.672Z,21.50
2018-07-08T08:28:16.855Z,21.50
2018-07-08T08:30:45.040Z,21.60
2018-07-08T08:33:13.235Z,21.60
2018-07-08T08:35:41.408Z,21.70
2018-07-08T08:38:09.609Z,21.70
2018-07-08T08:40:37.809Z,21.70
2018-07-08T08:43:06.248Z,21.80
2018-07-08T08:45:34.457Z,21.80
2018-07-08T08:48:02.859Z,21.80
2018-07-08T08:50:31.110Z,21.90
2018-07-08T08:52:59.398Z,21.90
2018-07-08T08:55:27.584Z,22.00
2018-07-08T08:57:55.753Z,22.00
2018-07-08T09:00:23.966Z,22.10
2018-07-08T09:02:52.243Z,22.10
2018-07-08T09:05:20.429Z,22.20
2018-07-08T09:07:48.620Z,22.20
2018-07-08T09:10:16.808Z,22.20
2018-07-08T09:12:45.011Z,22.30
2018-07-08T09:15:13.201Z,22.30
2018-07-08T09:17:41.385Z,22.30
2018-07-08T09:20:09.782Z,22.40
2018-07-08T09:22:38.050Z,22.40
2018-07-08T09:25:06.261Z,22.40
2018-07-08T09:27:34.480Z,22.50
2018-07-08T09:30:02.669Z,22.50
2018-07-08T09:32:31.105Z,22.60
2018-07-08T09:34:59.289Z,22.60
2018-07-08T09:37:27.522Z,22.60
2018-07-08T09:39:55.870Z,22.60
2018-07-08T09:42:24.090Z,22.70
2018-07-08T09:44:52.285Z,22.70
2018-07-08T09:47:20.504Z,22.70
2018-07-08T09:49:48.893Z,22.80
2018-07-08T09:52:17.120Z,22.80
2018-07-08T09:54:45.321Z,22.80
2018-07-08T09:57:13.650Z,22.90
2018-07-08T09:59:41.861Z,22.90
2018-07-08T10:02:10.084Z,22.90
2018-07-08T10:04:38.400Z,22.90
2018-07-08T10:07:06.522Z,22.90
2018-07-08T10:09:34.725Z,23.00
2018-07-08T10:12:03.034Z,23.00
2018-07-08T10:14:31.381Z,23.00
2018-07-08T10:16:59.550Z,23.00
2018-07-08T10:19:27.776Z,23.10
2018-07-08T10:21:55.954Z,23.10
2018-07-08T10:24:24.154Z,23.10
2018-07-08T10:27:02.926Z,23.10
2018-07-08T10:29:31.125Z,23.20
2018-07-08T10:31:59.308Z,23.20
2018-07-08T10:34:27.687Z,23.30
2018-07-08T10:36:55.857Z,23.30
2018-07-08T10:39:24.125Z,23.30
2018-07-08T10:41:52.412Z,23.30
2018-07-08T10:44:21.079Z,23.40
2018-07-08T10:46:49.266Z,23.40
2018-07-08T10:49:17.447Z,23.40
2018-07-08T10:51:45.709Z,23.40
2018-07-08T10:54:13.932Z,23.50
2018-07-08T10:56:42.113Z,23.40
2018-07-08T10:59:10.320Z,23.50
2018-07-08T11:01:38.526Z,23.50
2018-07-08T11:04:06.789Z,23.50
2018-07-08T11:06:34.966Z,23.50
2018-07-08T11:09:03.558Z,23.60
2018-07-08T11:11:31.737Z,23.60
2018-07-08T11:13:59.979Z,23.60
2018-07-08T11:16:28.186Z,23.70
2018-07-08T11:18:56.363Z,23.70
2018-07-08T11:21:24.646Z,23.70
2018-07-08T11:23:52.844Z,23.80
2018-07-08T11:26:21.090Z,23.80
2018-07-08T11:28:49.281Z,23.80
2018-07-08T11:31:17.732Z,23.80
2018-07-08T11:33:45.900Z,23.90
2018-07-08T11:36:14.108Z,23.90
2018-07-08T11:38:42.313Z,23.90
2018-07-08T11:41:10.540Z,24.00
2018-07-08T11:43:38.753Z,24.00
2018-07-08T11:46:06.978Z,24.10
2018-07-08T11:48:35.152Z,24.10
2018-07-08T11:51:03.389Z,24.10
2018-07-08T11:53:31.620Z,24.20
2018-07-08T11:55:59.820Z,24.20
2018-07-08T11:58:27.992Z,24.30
2018-07-08T12:00:56.192Z,24.30
2018-07-08T12:03:24.437Z,24.40
2018-07-08T12:05:52.625Z,24.30
2018-07-08T12:08:27.516Z,24.40
2018-07-08T12:10:55.737Z,24.40
2018-07-08T12:13:23.940Z,24.40
2018-07-08T12:15:52.128Z,24.50
2018-07-08T12:18:20.313Z,24.50
2018-07-08T12:20:48.663Z,24.50
2018-07-08T12:23:16.857Z,24.50
2018-07-08T12:25:45.032Z,24.50
2018-07-08T12:28:13.213Z,24.60
2018-07-08T12:30:41.384Z,24.60
2018-07-08T12:35:39.153Z,24.60
2018-07-08T12:38:08.257Z,24.70
2018-07-08T12:40:36.709Z,24.70
2018-07-08T12:43:04.881Z,24.70
2018-07-08T12:45:33.061Z,24.70
2018-07-08T12:48:01.257Z,24.80
2018-07-08T12:50:29.457Z,24.80
2018-07-08T12:52:57.675Z,24.80
2018-07-08T12:55:25.880Z,24.80
2018-07-08T12:57:54.070Z,24.80
2018-07-08T13:00:22.390Z,24.90
2018-07-08T13:02:50.637Z,24.90
2018-07-08T13:05:18.905Z,24.90
2018-07-08T13:07:47.130Z,24.90
2018-07-08T13:10:15.321Z,25.00
2018-07-08T13:12:43.556Z,25.00
2018-07-08T13:15:11.767Z,25.10
2018-07-08T13:17:39.961Z,25.10
2018-07-08T13:20:08.418Z,25.10
2018-07-08T13:22:36.637Z,25.10
2018-07-08T13:25:04.956Z,25.20
2018-07-08T13:27:33.191Z,25.20
2018-07-08T13:30:01.412Z,25.20
2018-07-08T13:32:29.611Z,25.20
2018-07-08T13:34:57.796Z,25.30
2018-07-08T13:37:26.033Z,25.30
2018-07-08T13:39:54.199Z,25.30
2018-07-08T13:42:22.413Z,25.40
2018-07-08T13:44:50.580Z,25.40
2018-07-08T13:47:18.789Z,25.40
2018-07-08T13:49:46.970Z,25.40
2018-07-08T13:52:15.157Z,25.40
2018-07-08T13:54:43.346Z,25.50
2018-07-08T13:57:11.524Z,25.50
2018-07-08T13:59:39.895Z,25.50
2018-07-08T14:02:08.280Z,25.50
2018-07-08T14:04:36.570Z,25.50
2018-07-08T14:07:04.797Z,25.60
2018-07-08T14:09:32.972Z,25.60
2018-07-08T14:12:01.137Z,25.60
2018-07-08T14:14:29.339Z,25.60
2018-07-08T14:16:57.540Z,25.70
2018-07-08T14:19:25.734Z,25.70
2018-07-08T14:21:53.910Z,25.70
2018-07-08T14:24:22.136Z,25.70
2018-07-08T14:26:50.316Z,25.70
2018-07-08T14:29:18.497Z,25.80
2018-07-08T14:31:46.678Z,25.90
2018-07-08T14:34:14.865Z,26.00
2018-07-08T14:36:43.069Z,26.00
2018-07-08T14:39:11.361Z,26.00
2018-07-08T14:41:39.545Z,26.10
2018-07-08T14:44:07.718Z,26.30
2018-07-08T14:46:35.962Z,26.50
2018-07-08T14:49:04.300Z,26.90
2018-07-08T14:51:32.486Z,28.10
2018-07-08T14:54:00.658Z,28.50
2018-07-08T14:56:28.850Z,28.30
2018-07-08T14:58:57.089Z,27.90
2018-07-08T15:01:25.341Z,27.50
2018-07-08T15:06:21.923Z,27.20
2018-07-08T15:08:50.114Z,27.10
2018-07-08T15:11:18.363Z,27.00
2018-07-08T15:13:46.557Z,26.90
2018-07-08T15:16:14.759Z,26.80
2018-07-08T15:18:42.937Z,26.90
2018-07-08T15:21:11.153Z,26.90
2018-07-08T15:23:39.341Z,26.80
2018-07-08T15:26:07.692Z,26.70
2018-07-08T15:28:35.938Z,26.70
2018-07-08T15:31:04.044Z,26.60
2018-07-08T15:33:32.286Z,26.60
2018-07-08T15:36:00.541Z,26.60
2018-07-08T15:38:28.796Z,26.50
2018-07-08T15:40:56.993Z,26.50
2018-07-08T15:43:25.342Z,26.50
2018-07-08T15:45:53.527Z,26.60
2018-07-08T15:48:21.728Z,26.70
2018-07-08T15:50:50.484Z,26.90
2018-07-08T15:53:18.660Z,26.90
2018-07-08T15:55:46.856Z,27.10
2018-07-08T15:58:15.054Z,27.20
2018-07-08T16:00:43.226Z,27.40
2018-07-08T16:03:11.417Z,27.60
2018-07-08T16:08:07.534Z,27.50
2018-07-08T16:10:35.786Z,27.50
2018-07-08T16:13:03.986Z,27.90
2018-07-08T16:15:32.176Z,28.10
2018-07-08T16:18:00.735Z,28.10
2018-07-08T16:20:29.914Z,28.00
2018-07-08T16:22:58.119Z,27.80
2018-07-08T16:25:26.302Z,27.60
2018-07-08T16:27:54.492Z,27.50
2018-07-08T16:30:22.661Z,27.40
2018-07-08T16:32:50.846Z,27.30
2018-07-08T16:35:19.050Z,27.20
2018-07-08T16:37:48.373Z,27.10
2018-07-08T16:40:16.549Z,27.00
2018-07-08T16:42:45.285Z,26.90
2018-07-08T16:45:14.688Z,26.90
2018-07-08T16:47:43.173Z,26.90
2018-07-08T16:50:11.549Z,26.80
2018-07-08T16:52:40.173Z,26.80
2018-07-08T16:55:08.411Z,26.80
2018-07-08T16:57:36.596Z,26.70
2018-07-08T17:00:05.049Z,26.70
2018-07-08T17:02:33.284Z,26.60
2018-07-08T17:05:01.538Z,26.60
2018-07-08T17:07:29.727Z,26.60
2018-07-08T17:09:57.906Z,26.60
2018-07-08T17:12:26.094Z,26.50
2018-07-08T17:14:54.323Z,26.50
2018-07-08T17:17:22.528Z,26.50
2018-07-08T17:19:50.690Z,26.50
2018-07-08T17:22:18.857Z,26.50
2018-07-08T17:24:47.024Z,26.50
2018-07-08T17:27:15.269Z,26.50
2018-07-08T17:29:43.424Z,26.50
2018-07-08T17:32:12.224Z,26.50
2018-07-08T17:34:40.381Z,26.50
2018-07-08T17:37:08.617Z,26.50
2018-07-08T17:39:36.829Z,26.50
2018-07-08T17:42:05.016Z,26.50
2018-07-08T17:44:33.219Z,26.50
2018-07-08T17:47:01.434Z,26.50
2018-07-08T17:49:29.609Z,26.50
2018-07-08T17:51:57.821Z,26.60
2018-07-08T17:54:25.998Z,26.60
2018-07-08T17:56:54.161Z,26.70
2018-07-08T17:59:22.345Z,26.70
2018-07-08T18:01:50.547Z,26.70
2018-07-08T18:04:18.780Z,26.70
2018-07-08T18:06:46.953Z,26.60
2018-07-08T18:09:15.121Z,26.50
2018-07-08T18:11:43.665Z,26.50
2018-07-08T18:14:13.045Z,26.40
2018-07-08T18:16:41.210Z,26.40
2018-07-08T18:19:09.501Z,26.30
2018-07-08T18:21:37.666Z,26.30
2018-07-08T18:24:05.961Z,26.20
2018-07-08T18:26:34.309Z,26.20
2018-07-08T18:29:02.558Z,26.20
2018-07-08T18:31:30.686Z,26.10
2018-07-08T18:33:59.069Z,26.10
2018-07-08T18:36:27.246Z,26.10
2018-07-08T18:38:55.423Z,26.00
2018-07-08T18:41:23.594Z,26.00
2018-07-08T18:43:51.781Z,25.90
2018-07-08T18:46:20.748Z,25.90
2018-07-08T18:48:49.531Z,25.90
2018-07-08T18:51:17.698Z,25.90
2018-07-08T18:53:45.927Z,25.80
2018-07-08T18:56:14.411Z,25.80
2018-07-08T18:58:42.586Z,25.70
2018-07-08T19:01:10.774Z,25.70
2018-07-08T19:03:39.000Z,25.70
2018-07-08T19:06:07.357Z,25.70
2018-07-08T19:08:35.521Z,25.60
2018-07-08T19:11:03.760Z,25.60
2018-07-08T19:13:31.912Z,25.60
2018-07-08T19:16:00.125Z,25.50
2018-07-08T19:18:28.362Z,25.50
2018-07-08T19:20:56.702Z,25.40
2018-07-08T19:23:24.886Z,25.40
2018-07-08T19:25:53.065Z,25.40
2018-07-08T19:28:21.290Z,25.30
2018-07-08T19:30:49.513Z,25.30
2018-07-08T19:33:17.973Z,25.30
2018-07-08T19:35:46.125Z,25.30
2018-07-08T19:38:14.309Z,25.30
2018-07-08T19:40:42.518Z,25.30
2018-07-08T19:43:11.085Z,25.20
2018-07-08T19:45:39.282Z,25.20
2018-07-08T19:48:07.473Z,25.20
2018-07-08T19:50:35.652Z,25.20
2018-07-08T19:53:03.870Z,25.20
2018-07-08T19:57:59.993Z,25.10
2018-07-08T20:00:28.181Z,25.10
2018-07-08T20:02:56.365Z,25.10
2018-07-08T20:05:24.599Z,25.10
2018-07-08T20:07:52.940Z,25.00
2018-07-08T20:10:21.107Z,25.00
2018-07-08T20:12:49.290Z,24.90
2018-07-08T20:15:17.481Z,24.90
2018-07-08T20:17:45.661Z,24.80
2018-07-08T20:20:13.847Z,24.70
2018-07-08T20:22:42.222Z,24.60
2018-07-08T20:25:10.544Z,24.60
2018-07-08T20:27:39.645Z,24.50
2018-07-08T20:30:07.833Z,24.50
2018-07-08T20:32:36.034Z,24.40
2018-07-08T20:35:04.185Z,24.30
2018-07-08T20:37:32.641Z,24.20
2018-07-08T20:40:00.825Z,24.20
2018-07-08T20:42:29.140Z,24.10
2018-07-08T20:44:57.321Z,24.10
2018-07-08T20:47:25.660Z,24.00
2018-07-08T20:49:53.849Z,23.90
2018-07-08T20:52:22.069Z,23.90
2018-07-08T20:54:50.311Z,23.90
2018-07-08T20:57:18.493Z,23.80
2018-07-08T20:59:46.946Z,23.80
2018-07-08T21:02:15.141Z,23.80
2018-07-08T21:04:43.381Z,23.80
2018-07-08T21:07:11.609Z,23.80
2018-07-08T21:09:39.785Z,23.80
2018-07-08T21:12:07.970Z,23.80
2018-07-08T21:14:36.140Z,23.70
2018-07-08T21:17:04.358Z,23.70
2018-07-08T21:19:32.549Z,23.70
2018-07-08T21:22:00.701Z,23.70
2018-07-08T21:24:28.893Z,23.70
2018-07-08T21:26:57.089Z,23.70
2018-07-08T21:29:25.298Z,23.60
2018-07-08T21:31:53.483Z,23.50
2018-07-08T21:36:49.660Z,23.50
2018-07-08T21:39:17.825Z,23.40
2018-07-08T21:41:46.038Z,23.40
2018-07-08T21:44:14.230Z,23.40
2018-07-08T21:46:42.404Z,23.30
2018-07-08T21:49:10.594Z,23.30
2018-07-08T21:54:07.169Z,23.20
2018-07-08T21:56:35.362Z,23.20
2018-07-08T21:59:03.558Z,23.20
2018-07-08T22:02:09.986Z,23.20
2018-07-08T22:04:38.286Z,23.20
2018-07-08T22:07:11.909Z,23.10
2018-07-08T22:09:40.437Z,23.10
2018-07-08T22:12:08.629Z,23.00
2018-07-08T22:14:36.799Z,23.00
2018-07-08T22:17:04.982Z,23.00
2018-07-08T22:19:33.170Z,22.90
2018-07-08T22:22:01.997Z,22.90
2018-07-08T22:24:30.190Z,22.80
2018-07-08T22:26:58.362Z,22.80
2018-07-08T22:29:26.581Z,22.70
2018-07-08T22:31:54.773Z,22.70
2018-07-08T22:34:22.969Z,22.60
2018-07-08T22:36:51.140Z,22.60
2018-07-08T22:39:19.317Z,22.50
2018-07-08T22:41:47.496Z,22.50
2018-07-08T22:44:15.745Z,22.50
2018-07-08T22:46:43.966Z,22.50
2018-07-08T22:49:12.173Z,22.50
2018-07-08T22:51:40.365Z,22.50
2018-07-08T22:54:08.545Z,22.50
2018-07-08T22:56:36.769Z,22.50
2018-07-08T23:01:44.254Z,22.40
2018-07-08T23:04:12.832Z,22.30
2018-07-08T23:06:40.998Z,22.20
2018-07-08T23:09:09.203Z,22.10
2018-07-08T23:11:37.382Z,22.00
2018-07-08T23:14:05.638Z,21.90
2018-07-08T23:16:33.821Z,21.90
2018-07-08T23:19:02.033Z,21.80
2018-07-08T23:21:30.224Z,21.80
2018-07-08T23:23:58.409Z,21.80
2018-07-08T23:26:26.590Z,21.70
2018-07-08T23:28:54.786Z,21.70
2018-07-08T23:31:22.957Z,21.60
2018-07-08T23:33:51.166Z,21.60
2018-07-08T23:36:19.349Z,21.60
2018-07-08T23:38:47.548Z,21.50
2018-07-08T23:41:15.741Z,21.50
2018-07-08T23:43:43.933Z,21.50
2018-07-08T23:48:40.073Z,21.40
2018-07-08T23:51:08.265Z,21.40
2018-07-08T23:53:36.441Z,21.40
2018-07-08T23:56:05.001Z,21.40
2018-07-08T23:58:33.206Z,21.40
